createdAt,value
2023-05-16T00:02:05.653Z,78.18
2023-05-16T00:04:33.473Z,78.44
2023-05-16T00:07:01.135Z,78.41
2023-05-16T00:09:28.667Z,78.58
2023-05-16T00:11:56.452Z,78.62
2023-05-16T00:14:25.762Z,78.50
2023-05-16T00:16:54.959Z,78.77
2023-05-16T00:19:23.238Z,78.67
2023-05-16T00:21:51.061Z,78.80
2023-05-16T00:24:18.623Z,78.82
2023-05-16T00:26:46.587Z,78.81
2023-05-16T00:29:15.655Z,79.12
2023-05-16T00:31:43.316Z,78.88
2023-05-16T00:34:11.877Z,78.98
2023-05-16T00:36:39.559Z,78.85
2023-05-16T00:39:10.664Z,78.91
2023-05-16T00:41:38.696Z,79.11
2023-05-16T00:44:06.416Z,79.07
2023-05-16T00:46:34.369Z,79.07
2023-05-16T00:49:02.953Z,79.04
2023-05-16T00:51:30.911Z,79.05
2023-05-16T00:53:59.613Z,79.08
2023-05-16T00:56:27.334Z,79.08
2023-05-16T00:58:55.145Z,78.98
2023-05-16T01:01:25.393Z,79.02
2023-05-16T01:03:54.016Z,78.96
2023-05-16T01:06:21.630Z,79.32
2023-05-16T01:08:49.241Z,79.35
2023-05-16T01:11:27.697Z,79.30
2023-05-16T01:14:26.383Z,79.58
2023-05-16T01:17:26.858Z,79.44
2023-05-16T01:20:10.601Z,79.42
2023-05-16T01:22:48.152Z,79.59
2023-05-16T01:25:56.334Z,79.54
2023-05-16T01:28:25.614Z,79.80
2023-05-16T01:30:53.711Z,80.05
2023-05-16T01:33:21.531Z,80.52
2023-05-16T01:36:17.739Z,80.25
2023-05-16T01:39:36.075Z,80.44
2023-05-16T01:42:15.367Z,80.51
2023-05-16T01:44:57.534Z,80.50
2023-05-16T01:47:27.259Z,80.37
2023-05-16T01:50:12.372Z,80.19
2023-05-16T01:52:50.558Z,80.19
2023-05-16T01:55:38.646Z,80.31
2023-05-16T01:58:08.317Z,80.76
2023-05-16T02:00:36.247Z,81.25
2023-05-16T02:03:04.535Z,81.38
2023-05-16T02:05:32.934Z,81.60
2023-05-16T02:08:01.177Z,81.63
2023-05-16T02:10:29.004Z,81.51
2023-05-16T02:12:57.284Z,81.27
2023-05-16T02:15:25.321Z,81.59
2023-05-16T02:17:53.661Z,81.31
2023-05-16T02:20:21.409Z,81.11
2023-05-16T02:22:49.515Z,81.07
2023-05-16T02:25:17.174Z,81.06
2023-05-16T02:27:44.885Z,81.20
2023-05-16T02:30:13.287Z,81.16
2023-05-16T02:32:43.457Z,81.29
2023-05-16T02:35:11.815Z,81.09
2023-05-16T02:37:40.530Z,81.06
2023-05-16T02:40:09.727Z,80.85
2023-05-16T02:42:37.622Z,80.75
2023-05-16T02:45:06.357Z,80.83
2023-05-16T02:47:34.144Z,80.76
2023-05-16T02:50:03.192Z,80.81
2023-05-16T02:52:32.728Z,80.80
2023-05-16T02:55:16.108Z,80.86
2023-05-16T02:57:29.548Z,80.84
2023-05-16T02:59:57.974Z,80.97
2023-05-16T03:02:25.995Z,80.90
2023-05-16T03:04:53.977Z,80.76
2023-05-16T03:07:21.803Z,80.60
2023-05-16T03:09:49.600Z,80.56
2023-05-16T03:12:17.469Z,80.52
2023-05-16T03:14:45.339Z,80.43
2023-05-16T03:17:12.889Z,80.30
2023-05-16T03:19:40.601Z,80.25
2023-05-16T03:22:08.396Z,80.17
2023-05-16T03:24:35.874Z,80.06
2023-05-16T03:27:04.285Z,79.99
2023-05-16T03:29:31.830Z,79.91
2023-05-16T03:31:59.714Z,79.85
2023-05-16T03:34:27.638Z,79.72
2023-05-16T03:36:55.689Z,79.70
2023-05-16T03:39:23.396Z,79.54
2023-05-16T03:41:51.735Z,79.54
2023-05-16T03:44:19.416Z,79.58
2023-05-16T03:46:47.165Z,79.50
2023-05-16T03:49:14.636Z,79.47
2023-05-16T03:51:42.277Z,79.42
2023-05-16T03:54:09.864Z,79.41
2023-05-16T03:56:37.438Z,79.29
2023-05-16T03:59:05.795Z,79.17
2023-05-16T04:01:33.540Z,79.10
2023-05-16T04:04:01.253Z,79.00
2023-05-16T04:06:28.910Z,78.89
2023-05-16T04:08:57.149Z,78.65
2023-05-16T04:11:26.320Z,78.40
2023-05-16T04:13:54.232Z,78.12
2023-05-16T04:16:22.428Z,77.89
2023-05-16T04:18:58.823Z,77.63
2023-05-16T04:21:27.108Z,77.42
2023-05-16T04:23:54.917Z,77.25
2023-05-16T04:26:27.852Z,77.18
2023-05-16T04:28:54.415Z,77.08
2023-05-16T04:31:22.951Z,76.99
2023-05-16T04:33:50.660Z,76.98
2023-05-16T04:36:19.284Z,76.89
2023-05-16T04:38:47.367Z,76.82
2023-05-16T04:41:17.733Z,76.71
2023-05-16T04:43:48.106Z,76.64
2023-05-16T04:46:16.215Z,76.59
2023-05-16T04:48:53.032Z,76.49
2023-05-16T04:51:22.353Z,76.40
2023-05-16T04:53:51.469Z,76.31
2023-05-16T04:56:19.897Z,76.25
2023-05-16T04:58:47.664Z,76.30
2023-05-16T05:01:15.486Z,76.23
2023-05-16T05:03:43.069Z,76.25
2023-05-16T05:06:11.158Z,76.27
2023-05-16T05:08:39.282Z,76.22
2023-05-16T05:11:06.930Z,76.12
2023-05-16T05:13:34.609Z,75.82
2023-05-16T05:16:04.359Z,75.53
2023-05-16T05:18:32.304Z,75.18
2023-05-16T05:21:00.179Z,74.94
2023-05-16T05:23:28.100Z,74.84
2023-05-16T05:25:55.827Z,74.80
2023-05-16T05:28:23.545Z,74.71
2023-05-16T05:30:51.667Z,74.53
2023-05-16T05:33:19.396Z,74.36
2023-05-16T05:35:47.360Z,74.26
2023-05-16T05:38:15.755Z,74.06
2023-05-16T05:40:43.481Z,73.93
2023-05-16T05:43:11.724Z,73.77
2023-05-16T05:45:39.493Z,73.77
2023-05-16T05:48:07.807Z,73.86
2023-05-16T05:50:35.531Z,73.87
2023-05-16T05:53:03.420Z,74.04
2023-05-16T05:55:31.120Z,74.00
2023-05-16T05:57:58.969Z,73.83
2023-05-16T06:00:27.631Z,73.81
2023-05-16T06:02:56.253Z,73.76
2023-05-16T06:05:32.319Z,73.67
2023-05-16T06:08:01.847Z,73.59
2023-05-16T06:10:29.804Z,73.59
2023-05-16T06:12:57.486Z,73.39
2023-05-16T06:15:26.144Z,73.28
2023-05-16T06:17:54.335Z,73.15
2023-05-16T06:20:22.225Z,72.85
2023-05-16T06:22:50.239Z,72.53
2023-05-16T06:25:17.960Z,72.22
2023-05-16T06:27:45.725Z,71.83
2023-05-16T06:30:13.668Z,71.71
2023-05-16T06:32:41.839Z,71.53
2023-05-16T06:35:09.729Z,71.22
2023-05-16T06:37:37.599Z,71.04
2023-05-16T06:40:06.828Z,70.74
2023-05-16T06:42:34.757Z,70.48
2023-05-16T06:45:03.264Z,70.40
2023-05-16T06:47:35.697Z,70.06
2023-05-16T06:50:04.398Z,69.63
2023-05-16T06:52:32.230Z,69.46
2023-05-16T06:54:59.894Z,69.11
2023-05-16T06:57:28.758Z,68.77
2023-05-16T06:59:56.625Z,68.54
2023-05-16T07:02:24.182Z,68.13
2023-05-16T07:04:52.421Z,68.00
2023-05-16T07:07:20.094Z,67.16
2023-05-16T07:09:47.781Z,66.66
2023-05-16T07:12:15.512Z,66.41
2023-05-16T07:14:43.217Z,66.39
2023-05-16T07:17:11.284Z,66.39
2023-05-16T07:19:38.891Z,66.24
2023-05-16T07:22:06.476Z,65.82
2023-05-16T07:24:34.037Z,65.54
2023-05-16T07:27:01.724Z,64.90
2023-05-16T07:29:30.050Z,64.57
2023-05-16T07:31:57.623Z,64.64
2023-05-16T07:34:25.930Z,64.31
2023-05-16T07:36:53.729Z,63.70
2023-05-16T07:39:21.400Z,63.79
2023-05-16T07:41:52.031Z,63.60
2023-05-16T07:44:19.567Z,63.52
2023-05-16T07:46:47.521Z,63.03
2023-05-16T07:49:15.672Z,63.32
2023-05-16T07:51:43.398Z,63.55
2023-05-16T07:54:11.281Z,63.78
2023-05-16T07:56:39.016Z,63.81
2023-05-16T07:59:06.650Z,63.66
2023-05-16T08:01:34.528Z,63.41
2023-05-16T08:04:02.107Z,63.44
2023-05-16T08:06:30.787Z,63.45
2023-05-16T08:08:58.510Z,63.25
2023-05-16T08:11:26.331Z,63.26
2023-05-16T08:13:54.058Z,63.25
2023-05-16T08:16:21.748Z,63.27
2023-05-16T08:18:49.484Z,62.97
2023-05-16T08:21:17.148Z,62.15
2023-05-16T08:23:45.055Z,62.22
2023-05-16T08:26:12.866Z,61.81
2023-05-16T08:28:40.492Z,61.79
2023-05-16T08:31:08.022Z,62.09
2023-05-16T08:33:35.796Z,62.00
2023-05-16T08:36:04.129Z,61.81
2023-05-16T08:38:32.052Z,61.84
2023-05-16T08:40:59.886Z,61.49
2023-05-16T08:43:28.147Z,61.30
2023-05-16T08:45:56.307Z,61.34
2023-05-16T08:48:25.775Z,60.66
2023-05-16T08:50:53.568Z,60.50
2023-05-16T08:53:29.822Z,60.37
2023-05-16T08:55:58.856Z,60.11
2023-05-16T08:58:27.686Z,59.89
2023-05-16T09:00:57.017Z,59.71
2023-05-16T09:03:25.434Z,59.94
2023-05-16T09:05:53.289Z,60.22
2023-05-16T09:08:21.302Z,60.21
2023-05-16T09:10:49.233Z,59.76
2023-05-16T09:13:17.136Z,59.34
2023-05-16T09:15:45.133Z,59.35
2023-05-16T09:18:16.158Z,59.48
2023-05-16T09:20:46.603Z,59.23
2023-05-16T09:23:16.588Z,59.12
2023-05-16T09:25:44.574Z,59.16
2023-05-16T09:28:12.299Z,59.02
2023-05-16T09:30:41.742Z,58.32
2023-05-16T09:33:09.567Z,58.20
2023-05-16T09:35:44.017Z,57.82
2023-05-16T09:38:12.130Z,57.73
2023-05-16T09:40:41.648Z,56.23
2023-05-16T09:43:10.443Z,56.21
2023-05-16T09:45:38.367Z,56.18
2023-05-16T09:48:12.543Z,55.40
2023-05-16T09:50:42.434Z,54.25
2023-05-16T09:53:10.222Z,54.20
2023-05-16T09:55:37.726Z,54.50
2023-05-16T09:58:05.536Z,54.42
2023-05-16T10:00:34.620Z,53.65
2023-05-16T10:03:05.386Z,53.18
2023-05-16T10:05:32.712Z,51.78
2023-05-16T10:08:03.796Z,51.53
2023-05-16T10:10:34.376Z,50.84
2023-05-16T10:13:06.734Z,50.87
2023-05-16T10:15:38.392Z,49.99
2023-05-16T10:18:15.086Z,50.21
2023-05-16T10:20:48.663Z,49.49
2023-05-16T10:23:24.260Z,49.65
2023-05-16T10:25:56.272Z,49.51
2023-05-16T10:28:27.028Z,48.93
2023-05-16T10:30:55.772Z,48.49
2023-05-16T10:33:24.188Z,47.24
2023-05-16T10:35:52.381Z,46.99
2023-05-16T10:38:23.917Z,46.80
2023-05-16T10:41:16.378Z,46.26
2023-05-16T10:43:57.996Z,45.09
2023-05-16T10:46:30.777Z,44.91
2023-05-16T10:48:59.516Z,44.50
2023-05-16T10:51:36.638Z,44.05
2023-05-16T10:54:13.743Z,43.57
2023-05-16T10:56:42.699Z,43.96
2023-05-16T10:59:26.147Z,43.09
2023-05-16T11:01:58.325Z,43.34
2023-05-16T11:04:57.155Z,42.62
2023-05-16T11:07:38.841Z,42.79
2023-05-16T11:13:51.120Z,41.88
2023-05-16T11:16:29.862Z,41.25
2023-05-16T11:19:07.749Z,41.09
2023-05-16T11:22:17.138Z,40.82
2023-05-16T11:25:10.832Z,40.39
2023-05-16T11:27:45.194Z,40.53
2023-05-16T11:30:20.950Z,41.22
2023-05-16T11:32:55.450Z,41.75
2023-05-16T11:35:23.166Z,41.62
2023-05-16T11:37:54.006Z,41.33
2023-05-16T11:40:21.722Z,41.23
2023-05-16T11:42:49.576Z,40.98
2023-05-16T11:45:21.221Z,41.04
2023-05-16T11:47:49.840Z,41.37
2023-05-16T11:50:25.728Z,40.72
2023-05-16T11:52:56.571Z,40.91
2023-05-16T11:58:12.982Z,41.03
2023-05-16T12:00:50.175Z,41.50
2023-05-16T12:03:20.129Z,42.29
2023-05-16T12:05:56.599Z,42.22
2023-05-16T12:08:24.832Z,42.64
2023-05-16T12:10:53.855Z,43.17
2023-05-16T12:13:24.066Z,43.02
2023-05-16T12:15:56.649Z,43.20
2023-05-16T12:18:24.632Z,43.05
2023-05-16T12:20:55.536Z,42.80
2023-05-16T12:26:32.952Z,43.05
2023-05-16T12:29:03.526Z,44.15
2023-05-16T12:31:37.570Z,44.15
2023-05-16T12:34:05.666Z,44.00
2023-05-16T12:36:34.525Z,44.65
2023-05-16T12:39:03.476Z,45.18
2023-05-16T12:41:32.028Z,44.84
2023-05-16T12:44:18.966Z,45.55
2023-05-16T12:46:50.973Z,45.99
2023-05-16T12:49:24.911Z,46.07
2023-05-16T12:51:55.606Z,46.60
2023-05-16T12:54:23.412Z,46.77
2023-05-16T12:56:51.350Z,46.81
2023-05-16T12:59:20.274Z,47.12
2023-05-16T13:01:48.313Z,47.41
2023-05-16T13:04:19.677Z,47.59
2023-05-16T13:06:57.676Z,47.65
2023-05-16T13:09:17.638Z,47.73
2023-05-16T13:11:45.704Z,47.98
2023-05-16T13:14:13.428Z,48.09
2023-05-16T13:16:41.202Z,47.97
2023-05-16T13:19:09.238Z,47.95
2023-05-16T13:21:37.115Z,48.22
2023-05-16T13:24:06.034Z,48.47
2023-05-16T13:26:34.504Z,48.71
2023-05-16T13:29:02.414Z,48.69
2023-05-16T13:31:30.277Z,48.72
2023-05-16T13:33:58.334Z,48.92
2023-05-16T13:36:26.169Z,49.18
2023-05-16T13:38:53.899Z,49.51
2023-05-16T13:41:21.702Z,49.78
2023-05-16T13:43:49.636Z,50.15
2023-05-16T13:46:17.464Z,50.26
2023-05-16T13:48:45.445Z,50.46
2023-05-16T13:51:14.740Z,50.64
2023-05-16T13:53:42.740Z,50.77
2023-05-16T13:56:10.605Z,50.87
2023-05-16T13:58:48.945Z,50.88
2023-05-16T14:01:08.183Z,51.18
2023-05-16T14:03:36.446Z,51.34
2023-05-16T14:06:04.301Z,51.47
2023-05-16T14:08:32.120Z,51.36
2023-05-16T14:11:00.067Z,51.34
2023-05-16T14:13:27.982Z,51.51
2023-05-16T14:15:55.667Z,51.35
2023-05-16T14:18:23.404Z,51.05
2023-05-16T14:20:50.941Z,50.74
2023-05-16T14:23:18.782Z,50.77
2023-05-16T14:25:46.586Z,50.88
2023-05-16T14:28:14.893Z,51.00
2023-05-16T14:30:42.628Z,50.91
2023-05-16T14:33:10.607Z,50.80
2023-05-16T14:35:40.553Z,50.91
2023-05-16T14:38:08.122Z,50.41
2023-05-16T14:40:35.836Z,50.19
2023-05-16T14:43:03.908Z,50.30
2023-05-16T14:45:31.462Z,50.47
2023-05-16T14:47:59.440Z,50.64
2023-05-16T14:50:29.428Z,50.87
2023-05-16T14:52:57.448Z,51.12
2023-05-16T14:55:25.550Z,51.47
2023-05-16T14:57:59.302Z,51.81
2023-05-16T15:00:25.558Z,51.95
2023-05-16T15:02:53.639Z,52.26
2023-05-16T15:05:21.686Z,52.33
2023-05-16T15:07:50.260Z,52.36
2023-05-16T15:10:17.924Z,52.60
2023-05-16T15:12:45.786Z,52.64
2023-05-16T15:15:21.852Z,52.69
2023-05-16T15:17:50.405Z,52.68
2023-05-16T15:20:19.871Z,52.79
2023-05-16T15:22:48.011Z,52.98
2023-05-16T15:25:15.993Z,53.19
2023-05-16T15:27:44.259Z,53.37
2023-05-16T15:30:12.337Z,53.39
2023-05-16T15:32:40.256Z,53.50
2023-05-16T15:35:08.476Z,53.56
2023-05-16T15:37:36.588Z,53.77
2023-05-16T15:40:05.509Z,54.08
2023-05-16T15:42:32.946Z,54.26
2023-05-16T15:45:00.792Z,54.44
2023-05-16T15:47:28.579Z,54.63
2023-05-16T15:49:56.229Z,54.88
2023-05-16T15:52:23.962Z,55.22
2023-05-16T15:54:51.725Z,55.35
2023-05-16T15:57:19.711Z,55.40
2023-05-16T15:59:47.357Z,55.57
2023-05-16T16:02:15.037Z,55.45
2023-05-16T16:04:43.009Z,55.37
2023-05-16T16:07:11.594Z,55.45
2023-05-16T16:09:39.846Z,55.67
2023-05-16T16:12:08.215Z,56.01
2023-05-16T16:14:35.934Z,56.40
2023-05-16T16:17:04.271Z,56.77
2023-05-16T16:19:34.941Z,56.83
2023-05-16T16:22:05.550Z,56.89
2023-05-16T16:24:34.486Z,57.15
2023-05-16T16:27:02.711Z,57.29
2023-05-16T16:29:30.376Z,57.56
2023-05-16T16:31:58.743Z,57.81
2023-05-16T16:34:26.997Z,58.05
2023-05-16T16:36:54.553Z,58.26
2023-05-16T16:39:22.337Z,58.46
2023-05-16T16:41:49.873Z,58.89
2023-05-16T16:44:19.404Z,59.32
2023-05-16T16:46:51.060Z,60.01
2023-05-16T16:49:20.989Z,60.42
2023-05-16T16:51:49.541Z,61.03
2023-05-16T16:54:40.380Z,62.12
2023-05-16T16:57:13.536Z,62.54
2023-05-16T16:59:41.768Z,63.28
2023-05-16T17:02:10.136Z,63.21
2023-05-16T17:04:38.895Z,63.52
2023-05-16T17:07:07.128Z,64.18
2023-05-16T17:09:40.592Z,64.19
2023-05-16T17:12:12.880Z,64.28
2023-05-16T17:14:43.236Z,64.57
2023-05-16T17:17:11.223Z,64.78
2023-05-16T17:19:40.169Z,65.16
2023-05-16T17:22:10.039Z,65.62
2023-05-16T17:24:39.935Z,66.37
2023-05-16T17:27:14.174Z,66.87
2023-05-16T17:30:01.733Z,66.72
2023-05-16T17:32:30.384Z,66.79
2023-05-16T17:35:03.555Z,67.04
2023-05-16T17:37:32.503Z,67.40
2023-05-16T17:40:02.314Z,68.51
2023-05-16T17:42:33.642Z,68.73
2023-05-16T17:45:05.355Z,69.13
2023-05-16T17:47:33.291Z,69.56
2023-05-16T17:50:01.959Z,69.52
2023-05-16T17:52:30.859Z,69.85
2023-05-16T17:55:03.584Z,71.00
2023-05-16T17:57:31.431Z,71.23
2023-05-16T17:59:59.489Z,72.24
2023-05-16T18:02:27.512Z,72.26
2023-05-16T18:04:55.273Z,72.46
2023-05-16T18:07:24.802Z,73.11
2023-05-16T18:09:53.724Z,73.49
2023-05-16T18:12:21.903Z,74.05
2023-05-16T18:14:53.551Z,74.53
2023-05-16T18:17:22.320Z,75.10
2023-05-16T18:19:55.187Z,75.46
2023-05-16T18:22:29.558Z,75.95
2023-05-16T18:24:57.428Z,75.89
2023-05-16T18:27:25.715Z,76.26
2023-05-16T18:29:57.538Z,76.09
2023-05-16T18:32:25.668Z,75.85
2023-05-16T18:34:53.250Z,75.96
2023-05-16T18:37:21.024Z,75.75
2023-05-16T18:39:48.984Z,76.26
2023-05-16T18:42:17.658Z,76.12
2023-05-16T18:44:46.166Z,76.54
2023-05-16T18:47:15.360Z,76.43
2023-05-16T18:49:43.114Z,76.62
2023-05-16T18:52:11.952Z,76.51
2023-05-16T18:54:39.700Z,76.58
2023-05-16T18:57:07.749Z,76.48
2023-05-16T18:59:36.978Z,76.59
2023-05-16T19:02:05.576Z,76.45
2023-05-16T19:04:36.479Z,76.81
2023-05-16T19:07:05.624Z,76.66
2023-05-16T19:09:34.247Z,76.56
2023-05-16T19:12:01.993Z,76.51
2023-05-16T19:14:29.581Z,76.54
2023-05-16T19:16:57.744Z,76.48
2023-05-16T19:19:25.572Z,76.43
2023-05-16T19:21:53.730Z,76.37
2023-05-16T19:24:21.921Z,76.32
2023-05-16T19:26:49.810Z,76.52
2023-05-16T19:29:18.496Z,76.49
2023-05-16T19:31:46.260Z,76.51
2023-05-16T19:34:14.054Z,76.40
2023-05-16T19:36:41.976Z,76.21
2023-05-16T19:39:10.241Z,75.80
2023-05-16T19:41:38.050Z,75.62
2023-05-16T19:44:06.009Z,75.35
2023-05-16T19:46:34.714Z,75.11
2023-05-16T19:49:04.896Z,74.99
2023-05-16T19:51:41.980Z,74.93
2023-05-16T19:54:06.517Z,74.81
2023-05-16T19:56:34.320Z,74.86
2023-05-16T19:59:02.507Z,74.75
2023-05-16T20:01:30.263Z,74.58
2023-05-16T20:04:00.062Z,74.78
2023-05-16T20:06:28.526Z,74.67
2023-05-16T20:08:56.748Z,74.60
2023-05-16T20:11:26.352Z,74.61
2023-05-16T20:13:55.221Z,74.56
2023-05-16T20:16:27.566Z,74.47
2023-05-16T20:18:56.019Z,74.22
2023-05-16T20:21:26.378Z,73.81
2023-05-16T20:23:55.189Z,73.39
2023-05-16T20:26:23.459Z,73.08
2023-05-16T20:28:51.179Z,69.58
2023-05-16T20:31:19.628Z,68.58
2023-05-16T20:33:47.650Z,66.53
2023-05-16T20:36:15.708Z,67.04
2023-05-16T20:38:45.903Z,63.30
2023-05-16T20:41:14.066Z,62.73
2023-05-16T20:43:49.247Z,61.94
2023-05-16T20:46:17.617Z,60.83
2023-05-16T20:48:45.741Z,62.01
2023-05-16T20:51:13.926Z,62.80
2023-05-16T20:53:42.201Z,63.02
2023-05-16T20:56:11.239Z,62.35
2023-05-16T20:58:43.579Z,60.49
2023-05-16T21:01:13.331Z,58.87
2023-05-16T21:03:45.441Z,58.92
2023-05-16T21:06:13.887Z,58.10
2023-05-16T21:08:48.762Z,57.93
2023-05-16T21:11:17.132Z,57.58
2023-05-16T21:13:45.391Z,57.80
2023-05-16T21:16:13.336Z,58.51
2023-05-16T21:18:41.409Z,58.73
2023-05-16T21:21:09.666Z,58.97
2023-05-16T21:23:38.871Z,59.14
2023-05-16T21:26:06.992Z,58.93
2023-05-16T21:28:42.663Z,59.05
2023-05-16T21:31:05.674Z,58.84
2023-05-16T21:33:33.605Z,58.54
2023-05-16T21:36:03.306Z,58.22
2023-05-16T21:38:31.643Z,57.41
2023-05-16T21:41:02.531Z,57.05
2023-05-16T21:43:31.505Z,56.89
2023-05-16T21:46:01.859Z,56.77
2023-05-16T21:48:30.213Z,57.02
2023-05-16T21:50:58.622Z,56.88
2023-05-16T21:53:26.722Z,56.85
2023-05-16T21:55:59.292Z,57.17
2023-05-16T21:58:28.830Z,57.38
2023-05-16T22:00:56.529Z,57.74
2023-05-16T22:03:24.301Z,58.44
2023-05-16T22:05:52.289Z,59.14
2023-05-16T22:08:20.098Z,59.59
2023-05-16T22:10:48.409Z,59.91
2023-05-16T22:13:16.300Z,60.25
2023-05-16T22:15:55.621Z,60.56
2023-05-16T22:18:16.218Z,60.83
2023-05-16T22:20:44.124Z,61.04
2023-05-16T22:23:12.155Z,61.28
2023-05-16T22:25:40.189Z,61.58
2023-05-16T22:28:07.893Z,61.70
2023-05-16T22:30:35.835Z,61.95
2023-05-16T22:33:04.069Z,62.14
2023-05-16T22:35:32.092Z,62.31
2023-05-16T22:38:00.162Z,62.48
2023-05-16T22:40:28.359Z,62.69
2023-05-16T22:42:56.269Z,63.12
2023-05-16T22:45:23.887Z,63.23
2023-05-16T22:47:51.833Z,63.29
2023-05-16T22:50:19.607Z,63.48
2023-05-16T22:52:47.404Z,63.53
2023-05-16T22:55:15.207Z,63.60
2023-05-16T22:57:43.982Z,63.60
2023-05-16T23:00:13.394Z,63.74
2023-05-16T23:02:44.526Z,63.74
2023-05-16T23:05:12.479Z,63.76
2023-05-16T23:07:40.495Z,63.80
2023-05-16T23:10:09.290Z,63.98
2023-05-16T23:12:37.738Z,64.00
2023-05-16T23:15:08.944Z,64.06
2023-05-16T23:17:40.912Z,64.12
2023-05-16T23:20:09.594Z,64.20
2023-05-16T23:22:37.210Z,64.44
2023-05-16T23:25:06.588Z,64.56
2023-05-16T23:27:34.448Z,64.60
2023-05-16T23:30:02.412Z,64.70
2023-05-16T23:32:30.489Z,64.69
2023-05-16T23:34:58.487Z,64.74
2023-05-16T23:37:26.349Z,64.62
2023-05-16T23:39:53.884Z,64.46
2023-05-16T23:42:21.476Z,64.40
2023-05-16T23:44:50.281Z,64.38
2023-05-16T23:47:18.060Z,64.31
2023-05-16T23:49:45.862Z,64.37
2023-05-16T23:52:13.589Z,64.56
2023-05-16T23:54:41.234Z,64.55
2023-05-16T23:57:10.295Z,64.63
2023-05-16T23:59:38.827Z,64.61
